Terminal Aerodrome Forecast
Issued by NWS

Home | Current Version | Previous Version | Text Only | Print | Product List | Glossary On
Versions: 1 2 3 4 5 6 7 8 9 10 11 12 13 14 15 16 17 18 19 20 21
000
FTUS43 KABR 251609 AAB
TAFATY
TAF AMD
KATY 251609Z 2516/2612 20013KT P6SM BKN025
      TEMPO 2516/2518 BKN015
     FM251900 20011KT P6SM SCT040
     FM260000 23009KT P6SM SCT250=

USA.gov is the U.S. government's official web portal to all federal, state and local government web resources and services.